createdAt,value
2019-04-20T00:01:19.724Z,10.70
2019-04-20T00:03:25.461Z,11.17
2019-04-20T00:05:27.516Z,7.30
2019-04-20T00:07:34.830Z,7.60
2019-04-20T00:09:39.749Z,9.60
2019-04-20T00:11:53.631Z,14.83
2019-04-20T00:13:59.176Z,15.23
2019-04-20T00:15:55.705Z,14.60
2019-04-20T00:18:04.370Z,8.50
2019-04-20T00:20:13.424Z,8.43
2019-04-20T00:22:20.072Z,11.70
2019-04-20T00:24:35.329Z,10.90
2019-04-20T00:27:11.785Z,15.00
2019-04-20T00:29:02.740Z,18.40
2019-04-20T00:31:09.636Z,11.90
2019-04-20T00:33:07.726Z,11.60
2019-04-20T00:35:02.210Z,11.47
2019-04-20T00:37:07.056Z,9.47
2019-04-20T00:39:14.592Z,17.73
2019-04-20T00:41:18.633Z,12.40
2019-04-20T00:43:30.114Z,10.07
2019-04-20T00:45:33.014Z,10.80
2019-04-20T00:47:45.483Z,8.40
2019-04-20T00:49:53.625Z,10.47
2019-04-20T00:52:13.115Z,11.60
2019-04-20T00:53:55.249Z,10.10
2019-04-20T00:55:57.258Z,12.00
2019-04-20T00:58:11.757Z,11.40
2019-04-20T01:00:25.806Z,10.53
2019-04-20T01:02:29.935Z,19.33
2019-04-20T01:04:45.965Z,15.17
2019-04-20T01:07:01.676Z,13.03
2019-04-20T01:09:16.287Z,12.23
2019-04-20T01:11:26.997Z,10.60
2019-04-20T01:13:28.041Z,9.93
2019-04-20T01:15:38.759Z,9.47
2019-04-20T01:17:40.985Z,12.53
2019-04-20T01:19:43.347Z,12.57
2019-04-20T01:21:54.833Z,11.70
2019-04-20T01:23:58.604Z,12.50
2019-04-20T01:26:05.482Z,8.60
2019-04-20T01:28:18.341Z,11.17
2019-04-20T01:30:21.951Z,8.47
2019-04-20T01:32:27.847Z,8.93
2019-04-20T01:34:36.798Z,12.80
2019-04-20T01:36:47.964Z,11.20
2019-04-20T01:38:47.573Z,11.47
2019-04-20T01:40:40.237Z,12.17
2019-04-20T01:42:44.596Z,12.77
2019-04-20T01:44:50.792Z,9.60
2019-04-20T01:46:59.319Z,12.43
2019-04-20T01:49:09.383Z,11.30
2019-04-20T01:51:11.796Z,10.17
2019-04-20T01:53:23.739Z,8.93
2019-04-20T01:55:38.579Z,15.23
2019-04-20T01:57:44.930Z,8.40
2019-04-20T01:59:51.714Z,11.73
2019-04-20T02:02:02.663Z,9.03
2019-04-20T02:04:22.456Z,9.70
2019-04-20T02:06:24.769Z,10.50
2019-04-20T02:08:29.471Z,8.57
2019-04-20T02:10:41.674Z,11.40
2019-04-20T02:12:40.872Z,15.70
2019-04-20T02:14:51.762Z,9.77
2019-04-20T02:17:01.653Z,9.67
2019-04-20T02:19:09.014Z,11.63
2019-04-20T02:21:19.641Z,11.67
2019-04-20T02:23:17.592Z,14.77
2019-04-20T02:25:14.207Z,13.13
2019-04-20T02:27:27.027Z,12.40
2019-04-20T02:29:47.434Z,9.70
2019-04-20T02:32:55.572Z,9.43
2019-04-20T02:34:16.485Z,14.10
2019-04-20T02:39:22.090Z,9.00
2019-04-20T02:41:11.784Z,9.93
2019-04-20T02:43:16.359Z,8.80
2019-04-20T02:45:33.386Z,13.80
2019-04-20T02:47:24.644Z,11.70
2019-04-20T02:49:44.861Z,10.17
2019-04-20T02:51:39.404Z,11.80
2019-04-20T02:53:40.812Z,10.97
2019-04-20T02:55:50.032Z,11.13
2019-04-20T02:57:54.858Z,9.70
2019-04-20T03:01:51.793Z,8.33
2019-04-20T03:03:43.675Z,12.03
2019-04-20T03:06:00.251Z,12.83
2019-04-20T03:08:08.740Z,10.07
2019-04-20T03:10:11.230Z,9.20
2019-04-20T03:12:23.879Z,8.40
2019-04-20T03:14:21.824Z,13.43
2019-04-20T03:16:31.868Z,9.07
2019-04-20T03:18:38.626Z,10.57
2019-04-20T03:20:49.723Z,10.63
2019-04-20T03:23:11.159Z,10.37
2019-04-20T03:24:59.770Z,9.30
2019-04-20T03:27:19.697Z,10.53
2019-04-20T03:29:56.725Z,9.27
2019-04-20T03:34:38.306Z,8.80
2019-04-20T03:36:25.299Z,10.73
2019-04-20T03:38:20.105Z,10.40
2019-04-20T03:40:24.378Z,9.53
2019-04-20T03:42:15.908Z,12.60
2019-04-20T03:44:25.622Z,9.30
2019-04-20T03:46:35.700Z,9.30
2019-04-20T03:48:48.352Z,8.53
2019-04-20T03:50:58.843Z,30.50
2019-04-20T03:53:09.971Z,13.33
2019-04-20T03:55:26.171Z,12.30
2019-04-20T03:57:45.891Z,13.80
2019-04-20T03:59:48.497Z,7.57
2019-04-20T04:02:22.520Z,7.93
2019-04-20T04:04:37.130Z,15.87
2019-04-20T04:06:30.677Z,11.63
2019-04-20T04:08:35.377Z,13.27
2019-04-20T04:10:52.443Z,12.57
2019-04-20T04:13:14.555Z,8.70
2019-04-20T04:15:19.004Z,9.50
2019-04-20T04:17:29.671Z,11.63
2019-04-20T04:19:33.651Z,9.10
2019-04-20T04:21:49.713Z,12.90
2019-04-20T04:23:54.311Z,10.43
2019-04-20T04:26:07.506Z,9.77
2019-04-20T04:28:09.766Z,15.20
2019-04-20T04:30:09.492Z,11.80
2019-04-20T04:32:33.092Z,14.23
2019-04-20T04:34:30.704Z,16.40
2019-04-20T04:36:26.222Z,10.50
2019-04-20T04:38:42.509Z,10.30
2019-04-20T04:40:52.483Z,18.27
2019-04-20T04:42:52.533Z,11.63
2019-04-20T04:44:46.742Z,10.73
2019-04-20T04:46:50.465Z,10.30
2019-04-20T04:48:51.144Z,12.57
2019-04-20T04:51:00.804Z,26.87
2019-04-20T04:53:09.056Z,11.23
2019-04-20T04:55:20.185Z,14.87
2019-04-20T04:57:13.679Z,11.60
2019-04-20T04:59:17.704Z,14.40
2019-04-20T05:01:25.901Z,17.93
2019-04-20T05:03:58.254Z,12.70
2019-04-20T05:06:06.460Z,9.13
2019-04-20T05:08:02.838Z,9.83
2019-04-20T05:09:59.157Z,11.47
2019-04-20T05:12:10.315Z,11.37
2019-04-20T05:14:15.043Z,10.80
2019-04-20T05:16:35.939Z,11.33
2019-04-20T05:18:44.912Z,10.90
2019-04-20T05:20:46.952Z,11.10
2019-04-20T05:22:59.094Z,16.00
2019-04-20T05:25:08.390Z,10.77
2019-04-20T05:27:33.523Z,9.63
2019-04-20T05:29:24.114Z,5.83
2019-04-20T05:31:32.111Z,7.13
2019-04-20T05:33:48.532Z,11.50
2019-04-20T05:35:58.916Z,10.60
2019-04-20T05:38:06.603Z,8.07
2019-04-20T05:40:10.793Z,7.90
2019-04-20T05:42:09.292Z,11.40
2019-04-20T05:44:26.028Z,9.27
2019-04-20T05:46:36.213Z,8.90
2019-04-20T05:48:46.271Z,8.50
2019-04-20T05:50:51.899Z,11.73
2019-04-20T05:52:57.775Z,11.00
2019-04-20T05:55:04.185Z,8.77
2019-04-20T05:57:17.463Z,9.27
2019-04-20T05:59:11.356Z,11.00
2019-04-20T06:01:20.468Z,15.00
2019-04-20T06:03:23.228Z,10.37
2019-04-20T06:05:27.515Z,8.30
2019-04-20T06:07:38.469Z,9.20
2019-04-20T06:09:39.718Z,11.37
2019-04-20T06:12:00.783Z,9.90
2019-04-20T06:14:03.500Z,12.00
2019-04-20T06:16:22.572Z,11.30
2019-04-20T06:18:44.106Z,10.67
2019-04-20T06:21:00.485Z,9.80
2019-04-20T06:23:10.079Z,7.60
2019-04-20T06:25:40.863Z,8.07
2019-04-20T06:27:38.155Z,9.17
2019-04-20T06:29:35.174Z,7.07
2019-04-20T06:31:42.161Z,8.77
2019-04-20T06:34:30.370Z,10.27
2019-04-20T06:36:32.134Z,6.93
2019-04-20T06:38:53.953Z,7.10
2019-04-20T06:40:57.858Z,8.77
2019-04-20T06:42:48.197Z,9.40
2019-04-20T06:44:46.354Z,9.57
2019-04-20T06:47:06.770Z,7.27
2019-04-20T06:49:11.420Z,7.30
2019-04-20T06:51:09.189Z,11.50
2019-04-20T06:53:32.540Z,8.63
2019-04-20T06:55:28.944Z,6.17
2019-04-20T06:57:34.646Z,7.13
2019-04-20T06:59:43.265Z,13.40
2019-04-20T07:01:56.785Z,6.63
2019-04-20T07:04:05.542Z,6.77
2019-04-20T07:06:19.493Z,7.63
2019-04-20T07:08:16.860Z,6.23
2019-04-20T07:10:19.749Z,13.60
2019-04-20T07:12:12.584Z,7.60
2019-04-20T07:14:09.488Z,8.07
2019-04-20T07:16:37.960Z,12.17
2019-04-20T07:19:00.742Z,6.10
2019-04-20T07:21:13.922Z,9.20
2019-04-20T07:23:23.880Z,10.87
2019-04-20T07:25:42.245Z,5.60
2019-04-20T07:27:49.696Z,5.87
2019-04-20T07:29:58.478Z,5.40
2019-04-20T07:31:57.671Z,5.77
2019-04-20T07:34:05.624Z,8.63
2019-04-20T07:36:20.189Z,5.30
2019-04-20T07:42:37.714Z,5.33
2019-04-20T07:44:41.374Z,4.70
2019-04-20T07:46:54.463Z,6.10
2019-04-20T07:48:42.293Z,6.03
2019-04-20T07:50:44.958Z,8.23
2019-04-20T07:52:46.353Z,6.00
2019-04-20T07:55:28.543Z,3.93
2019-04-20T07:57:10.006Z,3.73
2019-04-20T07:59:09.186Z,5.27
2019-04-20T08:01:38.912Z,11.30
2019-04-20T08:03:46.659Z,8.00
2019-04-20T08:05:47.981Z,6.60
2019-04-20T08:07:49.526Z,7.63
2019-04-20T08:09:54.398Z,5.70
2019-04-20T08:12:29.317Z,5.60
2019-04-20T08:14:24.230Z,7.07
2019-04-20T08:16:38.306Z,4.80
2019-04-20T08:18:45.735Z,5.50
2019-04-20T08:20:41.565Z,5.80
2019-04-20T08:22:47.451Z,18.53
2019-04-20T08:24:48.275Z,5.60
2019-04-20T08:26:48.581Z,10.53
2019-04-20T08:28:55.458Z,6.93
2019-04-20T08:31:31.244Z,7.03
2019-04-20T08:33:52.733Z,6.07
2019-04-20T08:35:54.666Z,7.60
2019-04-20T08:38:19.960Z,8.93
2019-04-20T08:40:05.338Z,4.90
2019-04-20T08:42:05.954Z,4.87
2019-04-20T08:46:15.037Z,12.30
2019-04-20T08:48:27.576Z,5.57
2019-04-20T08:50:29.512Z,5.03
2019-04-20T08:52:56.968Z,5.10
2019-04-20T08:54:35.548Z,6.20
2019-04-20T08:56:33.735Z,7.53
2019-04-20T08:58:31.617Z,7.10
2019-04-20T09:00:44.549Z,3.60
2019-04-20T09:02:48.916Z,5.20
2019-04-20T09:04:56.413Z,3.80
2019-04-20T09:07:04.115Z,9.03
2019-04-20T09:09:22.439Z,4.60
2019-04-20T09:11:19.631Z,5.20
2019-04-20T09:13:21.062Z,3.90
2019-04-20T09:17:45.157Z,7.30
2019-04-20T09:19:52.750Z,4.10
2019-04-20T09:22:09.827Z,10.40
2019-04-20T09:24:28.958Z,10.10
2019-04-20T09:26:26.930Z,6.47
2019-04-20T09:28:32.295Z,6.50
2019-04-20T09:30:41.771Z,7.57
2019-04-20T09:33:03.632Z,5.90
2019-04-20T09:35:09.547Z,5.53
2019-04-20T09:37:44.696Z,5.13
2019-04-20T09:40:11.319Z,6.27
2019-04-20T09:42:09.964Z,4.43
2019-04-20T09:44:20.082Z,7.13
2019-04-20T09:46:24.322Z,4.20
2019-04-20T09:48:36.132Z,8.53
2019-04-20T09:50:55.562Z,6.77
2019-04-20T09:53:00.480Z,6.43
2019-04-20T09:55:02.936Z,5.60
2019-04-20T09:57:25.318Z,9.23
2019-04-20T09:59:16.664Z,4.90
2019-04-20T10:01:16.630Z,5.40
2019-04-20T10:03:09.222Z,7.73
2019-04-20T10:05:33.488Z,8.20
2019-04-20T10:07:39.286Z,9.53
2019-04-20T10:09:45.618Z,6.20
2019-04-20T10:11:53.216Z,7.77
2019-04-20T10:13:58.493Z,7.10
2019-04-20T10:16:03.767Z,6.20
2019-04-20T10:18:07.974Z,6.47
2019-04-20T10:20:20.884Z,7.30
2019-04-20T10:22:18.421Z,4.90
2019-04-20T10:24:22.599Z,3.37
2019-04-20T10:26:27.010Z,5.33
2019-04-20T10:28:31.816Z,7.40
2019-04-20T10:30:36.710Z,6.20
2019-04-20T10:32:45.705Z,7.23
2019-04-20T10:34:46.587Z,4.70
2019-04-20T10:37:09.550Z,7.57
2019-04-20T10:39:18.485Z,6.63
2019-04-20T10:41:36.009Z,5.10
2019-04-20T10:43:28.323Z,8.17
2019-04-20T10:45:33.061Z,4.80
2019-04-20T10:47:43.375Z,9.20
2019-04-20T10:49:47.403Z,7.80
2019-04-20T10:51:51.715Z,4.40
2019-04-20T10:53:56.138Z,5.10
2019-04-20T10:56:01.269Z,3.60
2019-04-20T10:58:05.493Z,6.50
2019-04-20T11:00:10.599Z,5.53
2019-04-20T11:02:15.758Z,4.57
2019-04-20T11:04:20.882Z,4.33
2019-04-20T11:06:28.940Z,4.43
2019-04-20T11:08:32.970Z,5.20
2019-04-20T11:10:51.069Z,22.50
2019-04-20T11:12:44.254Z,4.07
2019-04-20T11:14:48.443Z,14.70
2019-04-20T11:16:52.468Z,10.47
2019-04-20T11:18:57.628Z,8.90
2019-04-20T11:21:01.744Z,7.93
2019-04-20T11:23:06.594Z,9.03
2019-04-20T11:25:10.620Z,6.10
2019-04-20T11:27:14.560Z,7.50
2019-04-20T11:29:20.009Z,5.97
2019-04-20T11:31:26.883Z,5.47
2019-04-20T11:33:30.047Z,5.63
2019-04-20T11:35:37.564Z,5.30
2019-04-20T11:37:39.889Z,5.03
2019-04-20T11:39:45.166Z,8.07
2019-04-20T11:41:49.748Z,8.63
2019-04-20T11:43:55.754Z,9.80
2019-04-20T11:46:00.546Z,3.97
2019-04-20T11:48:05.406Z,6.90
2019-04-20T11:50:11.899Z,5.20
2019-04-20T11:52:18.333Z,5.73
2019-04-20T11:54:22.079Z,6.40
2019-04-20T11:56:31.483Z,4.77
2019-04-20T11:58:33.166Z,5.80
2019-04-20T12:00:52.231Z,3.22
2019-04-20T12:03:15.901Z,3.92
2019-04-20T12:05:24.734Z,4.80
2019-04-20T12:07:20.108Z,4.15
2019-04-20T12:09:26.161Z,4.35
2019-04-20T12:11:40.636Z,4.08
2019-04-20T12:13:38.341Z,5.40
2019-04-20T12:15:45.423Z,4.25
2019-04-20T12:17:51.422Z,3.85
2019-04-20T12:19:56.028Z,2.83
2019-04-20T12:22:00.731Z,3.25
2019-04-20T12:24:06.633Z,7.25
2019-04-20T12:26:11.419Z,3.98
2019-04-20T12:28:16.059Z,5.40
2019-04-20T12:30:21.743Z,3.95
2019-04-20T12:32:29.525Z,2.75
2019-04-20T12:34:32.453Z,4.85
2019-04-20T12:36:37.361Z,5.30
2019-04-20T12:38:43.327Z,3.47
2019-04-20T12:40:48.521Z,3.83
2019-04-20T12:42:53.116Z,5.67
2019-04-20T12:44:57.811Z,2.90
2019-04-20T12:47:03.612Z,3.27
2019-04-20T12:49:09.435Z,2.60
2019-04-20T12:51:15.478Z,2.98
2019-04-20T12:53:20.450Z,7.03
2019-04-20T12:55:26.407Z,3.65
2019-04-20T12:57:32.282Z,3.55
2019-04-20T12:59:37.055Z,2.33
2019-04-20T13:01:41.603Z,2.70
2019-04-20T13:03:47.588Z,2.42
2019-04-20T13:05:52.313Z,4.95
2019-04-20T13:07:59.749Z,3.87
2019-04-20T13:10:05.713Z,3.30
2019-04-20T13:12:17.442Z,3.60
2019-04-20T13:15:16.153Z,3.10
2019-04-20T13:17:22.064Z,6.37
2019-04-20T13:19:27.066Z,10.68
2019-04-20T13:21:32.393Z,4.28
2019-04-20T13:23:37.293Z,3.10
2019-04-20T13:25:43.050Z,2.92
2019-04-20T13:27:49.125Z,3.35
2019-04-20T13:29:54.700Z,3.80
2019-04-20T13:32:02.018Z,2.75
2019-04-20T13:34:07.699Z,2.85
2019-04-20T13:36:12.538Z,3.20
2019-04-20T13:38:18.320Z,3.58
2019-04-20T13:40:23.832Z,3.87
2019-04-20T13:42:31.125Z,4.00
2019-04-20T13:44:34.940Z,4.92
2019-04-20T13:46:40.843Z,3.62
2019-04-20T13:48:47.150Z,5.65
2019-04-20T13:50:51.893Z,5.20
2019-04-20T13:52:56.601Z,3.83
2019-04-20T13:55:02.293Z,5.25
2019-04-20T13:57:08.040Z,4.92
2019-04-20T13:59:27.870Z,5.85
2019-04-20T14:01:39.008Z,3.40
2019-04-20T14:03:44.919Z,3.87
2019-04-20T14:05:50.844Z,4.78
2019-04-20T14:07:59.593Z,6.75
2019-04-20T14:10:05.833Z,5.35
2019-04-20T14:12:22.007Z,6.03
2019-04-20T14:14:17.221Z,6.60
2019-04-20T14:16:21.275Z,3.37
2019-04-20T14:18:25.298Z,6.30
2019-04-20T14:20:29.868Z,3.47
2019-04-20T14:22:33.812Z,2.90
2019-04-20T14:24:39.012Z,3.83
2019-04-20T14:26:44.575Z,3.37
2019-04-20T14:28:49.132Z,3.30
2019-04-20T14:30:54.149Z,2.60
2019-04-20T14:32:58.794Z,2.60
2019-04-20T14:35:03.156Z,2.43
2019-04-20T14:37:07.270Z,4.43
2019-04-20T14:39:12.045Z,3.00
2019-04-20T14:41:16.179Z,2.63
2019-04-20T14:43:21.150Z,2.58
2019-04-20T14:45:26.873Z,3.40
2019-04-20T14:47:31.885Z,3.45
2019-04-20T14:49:36.773Z,2.22
2019-04-20T14:51:41.658Z,2.75
2019-04-20T14:53:47.448Z,2.30
2019-04-20T14:55:53.398Z,2.50
2019-04-20T14:58:01.841Z,2.42
2019-04-20T15:00:23.579Z,2.47
2019-04-20T15:02:30.406Z,2.65
2019-04-20T15:04:36.931Z,3.22
2019-04-20T15:06:42.484Z,2.50
2019-04-20T15:08:48.342Z,2.52
2019-04-20T15:10:53.019Z,3.70
2019-04-20T15:13:02.420Z,4.17
2019-04-20T15:15:03.227Z,14.97
2019-04-20T15:17:10.828Z,11.38
2019-04-20T15:19:41.403Z,3.10
2019-04-20T15:21:47.469Z,4.50
2019-04-20T15:23:51.412Z,4.57
2019-04-20T15:25:55.421Z,3.80
2019-04-20T15:28:00.483Z,3.40
2019-04-20T15:30:06.569Z,4.17
2019-04-20T15:32:10.575Z,4.30
2019-04-20T15:34:15.021Z,3.93
2019-04-20T15:36:20.152Z,4.87
2019-04-20T15:38:24.984Z,5.33
2019-04-20T15:40:29.059Z,4.20
2019-04-20T15:42:33.230Z,4.17
2019-04-20T15:44:37.557Z,4.80
2019-04-20T15:46:41.698Z,4.43
2019-04-20T15:48:46.134Z,4.27
2019-04-20T15:50:50.335Z,4.20
2019-04-20T15:52:55.283Z,3.73
2019-04-20T15:55:01.780Z,6.33
2019-04-20T15:57:13.634Z,4.83
2019-04-20T15:59:12.525Z,3.93
2019-04-20T16:01:18.519Z,4.07
2019-04-20T16:03:29.646Z,5.50
2019-04-20T16:05:40.986Z,3.67
2019-04-20T16:07:51.101Z,4.33
2019-04-20T16:09:51.654Z,7.30
2019-04-20T16:11:57.050Z,6.77
2019-04-20T16:14:03.017Z,4.63
2019-04-20T16:16:07.831Z,6.47
2019-04-20T16:18:12.513Z,7.27
2019-04-20T16:20:20.105Z,5.97
2019-04-20T16:22:23.866Z,5.70
2019-04-20T16:24:32.894Z,8.23
2019-04-20T16:26:55.881Z,7.07
2019-04-20T16:28:59.852Z,7.37
2019-04-20T16:31:07.001Z,10.77
2019-04-20T16:33:10.446Z,10.17
2019-04-20T16:35:34.226Z,12.10
2019-04-20T16:37:38.500Z,12.80
2019-04-20T16:39:42.925Z,15.80
2019-04-20T16:41:46.979Z,14.23
2019-04-20T16:43:51.652Z,10.10
2019-04-20T16:45:57.091Z,11.10
2019-04-20T16:48:02.182Z,8.30
2019-04-20T16:50:08.746Z,9.80
2019-04-20T16:52:12.837Z,13.03
2019-04-20T16:54:17.689Z,12.13
2019-04-20T16:56:22.326Z,15.80
2019-04-20T16:58:28.012Z,10.83
2019-04-20T17:00:33.650Z,13.57
2019-04-20T17:02:44.587Z,17.20
2019-04-20T17:04:51.520Z,10.50
2019-04-20T17:07:20.665Z,15.57
2019-04-20T17:09:26.109Z,15.17
2019-04-20T17:11:30.201Z,14.20
2019-04-20T17:13:40.484Z,11.90
2019-04-20T17:15:39.729Z,10.27
2019-04-20T17:17:46.175Z,14.73
2019-04-20T17:19:49.503Z,15.00
2019-04-20T17:21:55.840Z,13.60
2019-04-20T17:23:59.464Z,14.83
2019-04-20T17:26:06.094Z,23.53
2019-04-20T17:28:26.910Z,23.43
2019-04-20T17:30:52.979Z,27.10
2019-04-20T17:33:02.345Z,18.57
2019-04-20T17:35:17.810Z,19.73
2019-04-20T17:37:12.872Z,19.73
2019-04-20T17:39:30.436Z,15.60
2019-04-20T17:41:44.475Z,18.90
2019-04-20T17:43:37.139Z,15.93
2019-04-20T17:45:47.528Z,11.87
2019-04-20T17:47:57.822Z,15.07
2019-04-20T17:50:06.911Z,20.70
2019-04-20T17:52:22.242Z,23.77
2019-04-20T17:54:19.862Z,26.57
2019-04-20T17:56:24.527Z,40.70
2019-04-20T17:58:32.645Z,36.07
2019-04-20T18:00:56.042Z,36.37
2019-04-20T18:03:14.646Z,19.60
2019-04-20T18:05:26.905Z,17.00
2019-04-20T18:07:35.407Z,20.47
2019-04-20T18:09:45.887Z,17.63
2019-04-20T18:11:32.751Z,17.90
2019-04-20T18:13:34.163Z,15.27
2019-04-20T18:15:52.638Z,17.27
2019-04-20T18:18:25.878Z,22.53
2019-04-20T18:20:23.049Z,29.43
2019-04-20T18:22:27.819Z,36.77
2019-04-20T18:24:58.291Z,32.37
2019-04-20T18:26:52.015Z,31.27
2019-04-20T18:29:03.609Z,28.30
2019-04-20T18:31:09.094Z,28.93
2019-04-20T18:33:17.940Z,30.00
2019-04-20T18:35:22.589Z,32.13
2019-04-20T18:37:27.437Z,34.73
2019-04-20T18:39:40.010Z,32.30
2019-04-20T18:41:46.660Z,39.60
2019-04-20T18:43:48.827Z,54.47
2019-04-20T18:46:08.053Z,59.17
2019-04-20T18:48:14.717Z,86.23
2019-04-20T18:50:10.508Z,72.50
2019-04-20T18:52:06.680Z,85.27
2019-04-20T18:54:17.215Z,72.47
2019-04-20T18:56:23.906Z,68.00
2019-04-20T18:58:22.938Z,52.43
2019-04-20T19:00:32.504Z,51.93
2019-04-20T19:02:38.053Z,43.10
2019-04-20T19:04:39.734Z,33.97
2019-04-20T19:06:43.841Z,39.90
2019-04-20T19:08:51.504Z,37.70
2019-04-20T19:11:01.541Z,39.53
2019-04-20T19:13:08.441Z,43.00
2019-04-20T19:15:48.141Z,45.40
2019-04-20T19:18:15.679Z,57.07
2019-04-20T19:20:18.327Z,61.97
2019-04-20T19:22:22.339Z,61.80
2019-04-20T19:24:29.289Z,55.93
2019-04-20T19:26:32.256Z,62.60
2019-04-20T19:28:44.233Z,53.63
2019-04-20T19:30:49.952Z,54.10
2019-04-20T19:33:05.026Z,60.37
2019-04-20T19:35:01.310Z,58.27
2019-04-20T19:37:13.705Z,52.00
2019-04-20T19:39:21.397Z,57.57
2019-04-20T19:41:27.351Z,63.50
2019-04-20T19:43:27.797Z,60.87
2019-04-20T19:45:48.710Z,60.10
2019-04-20T19:47:47.673Z,51.70
2019-04-20T19:49:44.964Z,57.30
2019-04-20T19:52:16.029Z,62.00
2019-04-20T19:54:16.608Z,43.43
2019-04-20T19:56:05.241Z,41.67
2019-04-20T19:58:14.040Z,50.57
2019-04-20T20:00:07.657Z,51.70
2019-04-20T20:02:12.158Z,57.00
2019-04-20T20:04:17.457Z,46.80
2019-04-20T20:06:29.347Z,45.97
2019-04-20T20:08:29.923Z,33.50
2019-04-20T20:10:37.724Z,39.10
2019-04-20T20:12:39.809Z,31.00
2019-04-20T20:14:47.798Z,30.70
2019-04-20T20:17:12.888Z,29.07
2019-04-20T20:19:06.001Z,32.00
2019-04-20T20:21:19.318Z,29.90
2019-04-20T20:23:07.926Z,25.00
2019-04-20T20:25:12.778Z,25.57
2019-04-20T20:27:25.637Z,23.50
2019-04-20T20:29:30.502Z,24.33
2019-04-20T20:31:46.977Z,23.90
2019-04-20T20:33:49.667Z,21.77
2019-04-20T20:35:48.128Z,28.50
2019-04-20T20:37:53.461Z,28.87
2019-04-20T20:39:57.017Z,33.67
2019-04-20T20:42:10.878Z,35.13
2019-04-20T20:44:08.750Z,40.57
2019-04-20T20:46:19.804Z,48.93
2019-04-20T20:48:34.050Z,46.70
2019-04-20T20:50:42.760Z,42.30
2019-04-20T20:52:44.057Z,43.47
2019-04-20T20:54:47.777Z,41.57
2019-04-20T20:56:48.752Z,47.43
2019-04-20T20:58:52.035Z,43.00
2019-04-20T21:00:57.546Z,49.17
2019-04-20T21:03:00.834Z,49.87
2019-04-20T21:05:00.121Z,48.07
2019-04-20T21:07:04.596Z,50.80
2019-04-20T21:09:10.402Z,36.67
2019-04-20T21:11:20.435Z,32.63
2019-04-20T21:13:21.384Z,35.00
2019-04-20T21:15:27.935Z,31.87
2019-04-20T21:17:47.504Z,37.80
2019-04-20T21:19:53.349Z,43.23
2019-04-20T21:21:50.469Z,45.47
2019-04-20T21:23:56.724Z,36.33
2019-04-20T21:26:12.740Z,29.93
2019-04-20T21:28:13.383Z,34.10
2019-04-20T21:30:29.140Z,31.87
2019-04-20T21:32:26.573Z,29.60
2019-04-20T21:34:31.202Z,30.30
2019-04-20T21:36:36.763Z,32.33
2019-04-20T21:38:42.918Z,28.50
2019-04-20T21:40:49.566Z,32.23
2019-04-20T21:42:58.784Z,29.93
2019-04-20T21:45:09.663Z,28.63
2019-04-20T21:47:05.155Z,29.20
2019-04-20T21:49:23.824Z,27.53
2019-04-20T21:51:29.731Z,28.77
2019-04-20T21:53:26.652Z,30.70
2019-04-20T21:55:27.846Z,26.40
2019-04-20T21:57:39.057Z,27.17
2019-04-20T21:59:43.236Z,30.10
2019-04-20T22:01:55.131Z,29.27
2019-04-20T22:03:50.263Z,32.40
2019-04-20T22:06:04.759Z,38.80
2019-04-20T22:08:11.355Z,34.63
2019-04-20T22:10:21.372Z,34.00
2019-04-20T22:12:20.461Z,32.13
2019-04-20T22:14:27.931Z,37.13
2019-04-20T22:16:36.567Z,36.57
2019-04-20T22:18:48.379Z,37.30
2019-04-20T22:20:52.220Z,36.03
2019-04-20T22:22:59.462Z,39.97
2019-04-20T22:25:08.261Z,40.63
2019-04-20T22:27:06.440Z,38.00
2019-04-20T22:29:04.177Z,34.50
2019-04-20T22:31:09.467Z,36.47
2019-04-20T22:33:36.344Z,35.53
2019-04-20T22:35:47.911Z,40.30
2019-04-20T22:37:52.041Z,38.70
2019-04-20T22:39:56.639Z,40.20
2019-04-20T22:42:07.119Z,33.03
2019-04-20T22:44:14.541Z,45.00
2019-04-20T22:46:13.058Z,37.40
2019-04-20T22:48:19.219Z,37.27
2019-04-20T22:50:45.108Z,41.33
2019-04-20T22:52:47.847Z,40.50
2019-04-20T22:54:54.834Z,45.63
2019-04-20T22:56:55.130Z,38.70
2019-04-20T22:58:57.564Z,40.10
2019-04-20T23:01:01.239Z,35.23
2019-04-20T23:03:00.821Z,38.13
2019-04-20T23:05:06.791Z,43.10
2019-04-20T23:07:12.656Z,43.73
2019-04-20T23:09:17.505Z,36.87
2019-04-20T23:11:26.993Z,42.57
2019-04-20T23:13:35.119Z,44.43
2019-04-20T23:15:34.364Z,41.10
2019-04-20T23:17:43.084Z,38.47
2019-04-20T23:19:49.507Z,39.73
2019-04-20T23:21:57.264Z,42.07
2019-04-20T23:24:01.698Z,42.13
2019-04-20T23:26:01.356Z,38.90
2019-04-20T23:28:10.109Z,51.07
2019-04-20T23:30:21.294Z,47.77
2019-04-20T23:32:19.580Z,44.40
2019-04-20T23:34:28.455Z,44.43
2019-04-20T23:36:36.963Z,44.87
2019-04-20T23:38:35.296Z,41.30
2019-04-20T23:40:39.694Z,43.73
2019-04-20T23:42:49.518Z,34.57
2019-04-20T23:45:16.858Z,39.43
2019-04-20T23:47:30.078Z,46.97
2019-04-20T23:49:54.248Z,43.23
2019-04-20T23:52:08.656Z,47.77
2019-04-20T23:53:55.530Z,44.83
2019-04-20T23:55:54.023Z,40.67
2019-04-20T23:58:03.277Z,35.90
